createdAt,value
2023-02-20T00:00:30.296Z,2.20
2023-02-20T00:01:34.078Z,2.05
2023-02-20T00:02:36.851Z,2.15
2023-02-20T00:03:39.571Z,2.05
2023-02-20T00:04:42.510Z,1.85
2023-02-20T00:05:45.387Z,2.03
2023-02-20T00:06:48.168Z,2.47
2023-02-20T00:07:51.065Z,1.83
2023-02-20T00:08:53.913Z,1.90
2023-02-20T00:09:56.701Z,2.00
2023-02-20T00:10:59.406Z,1.70
2023-02-20T00:12:02.264Z,1.95
2023-02-20T00:13:05.086Z,2.00
2023-02-20T00:14:08.276Z,2.28
2023-02-20T00:15:14.128Z,1.95
2023-02-20T00:16:16.971Z,2.05
2023-02-20T00:17:19.718Z,2.35
2023-02-20T00:18:22.644Z,1.73
2023-02-20T00:19:25.513Z,1.65
2023-02-20T00:20:30.477Z,2.13
2023-02-20T00:21:33.195Z,1.50
2023-02-20T00:22:36.021Z,2.20
2023-02-20T00:23:38.939Z,2.00
2023-02-20T00:24:42.597Z,1.85
2023-02-20T00:25:45.519Z,2.40
2023-02-20T00:26:53.037Z,2.50
2023-02-20T00:28:58.398Z,1.73
2023-02-20T00:30:01.469Z,1.63
2023-02-20T00:31:04.424Z,2.13
2023-02-20T00:32:07.332Z,1.33
2023-02-20T00:33:10.189Z,1.65
2023-02-20T00:34:13.019Z,1.50
2023-02-20T00:35:16.793Z,1.92
2023-02-20T00:36:20.436Z,1.33
2023-02-20T00:37:23.449Z,1.83
2023-02-20T00:38:26.322Z,1.65
2023-02-20T00:39:29.916Z,1.73
2023-02-20T00:40:32.788Z,1.58
2023-02-20T00:41:37.787Z,2.00
2023-02-20T00:42:40.914Z,1.88
2023-02-20T00:43:43.889Z,1.75
2023-02-20T00:44:46.727Z,1.83
2023-02-20T00:45:49.473Z,1.75
2023-02-20T00:46:52.440Z,2.03
2023-02-20T00:47:55.382Z,1.55
2023-02-20T00:49:00.657Z,2.00
2023-02-20T00:50:21.990Z,1.60
2023-02-20T00:51:25.273Z,1.67
2023-02-20T00:52:28.583Z,2.08
2023-02-20T00:53:31.555Z,1.40
2023-02-20T00:54:34.587Z,1.65
2023-02-20T00:55:37.479Z,1.58
2023-02-20T00:56:40.272Z,1.80
2023-02-20T00:57:43.273Z,1.98
2023-02-20T00:58:46.073Z,1.80
2023-02-20T00:59:49.070Z,1.40
2023-02-20T01:00:53.607Z,1.42
2023-02-20T01:01:56.447Z,1.80
2023-02-20T01:02:59.452Z,1.70
2023-02-20T01:04:02.332Z,1.55
2023-02-20T01:05:05.506Z,1.45
2023-02-20T01:06:08.366Z,1.52
2023-02-20T01:07:11.319Z,1.15
2023-02-20T01:08:14.895Z,1.58
2023-02-20T01:09:17.670Z,2.05
2023-02-20T01:10:20.549Z,1.30
2023-02-20T01:11:23.756Z,1.85
2023-02-20T01:12:28.648Z,1.52
2023-02-20T01:13:31.784Z,1.52
2023-02-20T01:14:34.633Z,1.77
2023-02-20T01:15:37.536Z,1.42
2023-02-20T01:16:51.738Z,1.38
2023-02-20T01:17:54.940Z,1.30
2023-02-20T01:19:00.224Z,1.30
2023-02-20T01:20:03.395Z,1.40
2023-02-20T01:21:06.663Z,1.40
2023-02-20T01:22:09.901Z,1.30
2023-02-20T01:23:13.209Z,1.42
2023-02-20T01:24:16.955Z,1.60
2023-02-20T01:25:19.890Z,1.55
2023-02-20T01:26:22.922Z,1.23
2023-02-20T01:27:27.173Z,1.88
2023-02-20T01:28:30.051Z,1.30
2023-02-20T01:29:32.958Z,1.42
2023-02-20T01:30:35.896Z,1.50
2023-02-20T01:31:39.130Z,1.40
2023-02-20T01:32:44.883Z,1.75
2023-02-20T01:33:47.912Z,1.42
2023-02-20T01:34:50.775Z,1.30
2023-02-20T01:35:53.644Z,1.38
2023-02-20T01:36:57.780Z,1.23
2023-02-20T01:38:06.497Z,1.27
2023-02-20T01:39:09.284Z,1.27
2023-02-20T01:40:24.547Z,1.38
2023-02-20T01:41:27.363Z,1.67
2023-02-20T01:42:33.173Z,1.55
2023-02-20T01:43:36.072Z,1.02
2023-02-20T01:44:39.718Z,1.33
2023-02-20T01:45:42.930Z,1.02
2023-02-20T01:46:51.687Z,1.13
2023-02-20T01:47:57.276Z,1.83
2023-02-20T01:49:06.122Z,1.10
2023-02-20T01:50:10.692Z,1.50
2023-02-20T01:51:13.514Z,1.17
2023-02-20T01:52:21.427Z,1.50
2023-02-20T01:53:26.853Z,1.27
2023-02-20T01:54:31.397Z,1.83
2023-02-20T01:55:41.377Z,1.42
2023-02-20T01:56:47.258Z,1.35
2023-02-20T01:58:01.667Z,1.33
2023-02-20T01:59:06.987Z,1.17
2023-02-20T02:00:20.422Z,1.63
2023-02-20T02:01:23.438Z,1.38
2023-02-20T02:02:31.045Z,1.98
2023-02-20T02:03:40.047Z,1.30
2023-02-20T02:04:45.487Z,1.35
2023-02-20T02:06:00.531Z,1.63
2023-02-20T02:07:04.236Z,1.13
2023-02-20T02:08:10.194Z,1.23
2023-02-20T02:09:33.234Z,1.65
2023-02-20T02:11:03.271Z,1.00
2023-02-20T02:12:09.312Z,1.13
2023-02-20T02:13:12.683Z,1.50
2023-02-20T02:14:16.088Z,1.10
2023-02-20T02:15:21.394Z,1.30
2023-02-20T02:16:51.904Z,1.27
2023-02-20T02:18:11.452Z,1.00
2023-02-20T02:20:35.020Z,1.08
2023-02-20T02:22:02.843Z,0.73
2023-02-20T02:23:11.300Z,1.13
2023-02-20T02:24:28.044Z,1.23
2023-02-20T02:25:48.480Z,1.02
2023-02-20T02:26:51.311Z,1.10
2023-02-20T02:28:20.893Z,1.23
2023-02-20T02:29:57.162Z,0.98
2023-02-20T02:31:31.534Z,1.42
2023-02-20T02:32:37.166Z,1.20
2023-02-20T02:34:05.478Z,1.02
2023-02-20T02:35:23.305Z,1.00
2023-02-20T02:36:50.532Z,1.40
2023-02-20T02:37:53.314Z,1.20
2023-02-20T02:39:00.168Z,1.52
2023-02-20T02:40:23.269Z,1.20
2023-02-20T02:41:28.612Z,1.30
2023-02-20T02:42:49.715Z,1.42
2023-02-20T02:44:13.320Z,1.48
2023-02-20T02:45:33.090Z,1.20
2023-02-20T02:47:03.093Z,0.90
2023-02-20T02:48:29.291Z,1.15
2023-02-20T02:49:55.188Z,1.25
2023-02-20T02:51:08.110Z,0.95
2023-02-20T02:52:13.162Z,1.20
2023-02-20T02:53:16.178Z,1.10
2023-02-20T02:54:22.552Z,1.35
2023-02-20T02:55:29.027Z,1.00
2023-02-20T02:56:36.692Z,1.20
2023-02-20T02:57:39.645Z,0.90
2023-02-20T02:58:42.511Z,1.33
2023-02-20T02:59:47.171Z,1.20
2023-02-20T03:01:02.639Z,1.23
2023-02-20T03:02:12.874Z,1.30
2023-02-20T03:03:24.769Z,1.13
2023-02-20T03:04:30.225Z,1.27
2023-02-20T03:06:00.479Z,1.17
2023-02-20T03:07:09.108Z,1.15
2023-02-20T03:08:31.685Z,1.10
2023-02-20T03:09:40.560Z,0.90
2023-02-20T03:10:44.987Z,0.90
2023-02-20T03:11:48.715Z,1.38
2023-02-20T03:13:02.409Z,0.80
2023-02-20T03:14:33.822Z,1.40
2023-02-20T03:15:41.991Z,0.90
2023-02-20T03:17:08.892Z,1.27
2023-02-20T03:18:36.348Z,1.40
2023-02-20T03:19:49.557Z,1.10
2023-02-20T03:21:05.664Z,1.00
2023-02-20T03:22:16.375Z,1.10
2023-02-20T03:23:25.246Z,0.90
2023-02-20T03:24:33.080Z,1.30
2023-02-20T03:25:46.355Z,1.27
2023-02-20T03:28:07.164Z,1.10
2023-02-20T03:29:25.100Z,1.40
2023-02-20T03:30:55.501Z,0.80
2023-02-20T03:32:31.253Z,1.13
2023-02-20T03:34:00.865Z,1.00
2023-02-20T03:35:25.200Z,1.02
2023-02-20T03:36:53.366Z,1.02
2023-02-20T03:38:15.232Z,0.90
2023-02-20T03:39:41.832Z,1.00
2023-02-20T03:41:04.622Z,1.10
2023-02-20T03:42:27.985Z,0.82
2023-02-20T03:43:40.053Z,0.70
2023-02-20T03:44:44.847Z,1.30
2023-02-20T03:45:49.198Z,0.80
2023-02-20T03:46:57.672Z,0.93
2023-02-20T03:48:04.843Z,1.00
2023-02-20T03:49:13.769Z,1.00
2023-02-20T03:50:20.108Z,0.75
2023-02-20T03:51:24.214Z,0.80
2023-02-20T03:52:33.348Z,0.95
2023-02-20T03:53:36.489Z,0.80
2023-02-20T03:54:40.547Z,0.90
2023-02-20T03:55:44.239Z,1.13
2023-02-20T03:56:56.066Z,1.20
2023-02-20T03:58:03.512Z,0.73
2023-02-20T03:59:21.177Z,0.70
2023-02-20T04:00:30.726Z,0.68
2023-02-20T04:01:36.850Z,0.57
2023-02-20T04:02:43.464Z,0.90
2023-02-20T04:03:49.666Z,1.00
2023-02-20T04:04:54.759Z,0.95
2023-02-20T04:06:00.924Z,1.58
2023-02-20T04:07:16.421Z,0.77
2023-02-20T04:08:36.220Z,1.08
2023-02-20T04:09:43.510Z,1.00
2023-02-20T04:11:01.184Z,0.88
2023-02-20T04:12:17.372Z,0.77
2023-02-20T04:13:21.157Z,0.85
2023-02-20T04:14:28.677Z,0.98
2023-02-20T04:15:34.117Z,0.73
2023-02-20T04:17:00.296Z,1.02
2023-02-20T04:18:11.085Z,0.88
2023-02-20T04:19:16.001Z,0.88
2023-02-20T04:20:20.136Z,0.77
2023-02-20T04:22:43.777Z,0.68
2023-02-20T04:23:50.339Z,0.98
2023-02-20T04:25:04.740Z,1.00
2023-02-20T04:26:14.195Z,0.82
2023-02-20T04:27:19.455Z,0.90
2023-02-20T04:28:28.020Z,0.80
2023-02-20T04:29:37.689Z,0.73
2023-02-20T04:30:40.824Z,0.60
2023-02-20T04:31:43.809Z,0.80
2023-02-20T04:32:46.899Z,0.93
2023-02-20T04:33:49.808Z,1.00
2023-02-20T04:34:57.779Z,1.10
2023-02-20T04:36:02.513Z,0.82
2023-02-20T04:37:19.839Z,1.30
2023-02-20T04:38:25.961Z,1.00
2023-02-20T04:39:28.937Z,0.70
2023-02-20T04:40:31.892Z,0.90
2023-02-20T04:41:34.844Z,0.80
2023-02-20T04:42:37.766Z,0.70
2023-02-20T04:43:40.723Z,1.02
2023-02-20T04:44:43.567Z,0.90
2023-02-20T04:45:48.349Z,0.75
2023-02-20T04:46:51.392Z,0.68
2023-02-20T04:47:55.253Z,0.93
2023-02-20T04:48:57.986Z,0.70
2023-02-20T04:50:00.848Z,0.80
2023-02-20T04:51:03.830Z,0.77
2023-02-20T04:52:08.483Z,1.30
2023-02-20T04:53:12.130Z,0.90
2023-02-20T04:54:15.141Z,0.70
2023-02-20T04:55:18.437Z,0.85
2023-02-20T04:56:21.232Z,0.70
2023-02-20T04:57:24.051Z,0.90
2023-02-20T04:58:28.689Z,1.17
2023-02-20T04:59:38.950Z,1.02
2023-02-20T05:00:41.889Z,0.75
2023-02-20T05:01:48.338Z,0.85
2023-02-20T05:02:51.523Z,0.95
2023-02-20T05:03:54.370Z,0.88
2023-02-20T05:04:57.200Z,1.58
2023-02-20T05:06:00.283Z,1.10
2023-02-20T05:07:03.648Z,0.90
2023-02-20T05:08:08.375Z,1.10
2023-02-20T05:09:11.385Z,0.77
2023-02-20T05:10:18.750Z,0.85
2023-02-20T05:12:24.296Z,0.50
2023-02-20T05:13:26.999Z,0.73
2023-02-20T05:14:29.761Z,1.08
2023-02-20T05:15:33.455Z,0.88
2023-02-20T05:16:39.048Z,0.80
2023-02-20T05:17:42.056Z,0.80
2023-02-20T05:18:45.858Z,0.93
2023-02-20T05:19:48.667Z,0.73
2023-02-20T05:21:10.129Z,0.80
2023-02-20T05:22:19.698Z,1.00
2023-02-20T05:23:22.455Z,0.90
2023-02-20T05:24:25.274Z,0.88
2023-02-20T05:25:28.163Z,0.80
2023-02-20T05:26:31.012Z,1.13
2023-02-20T05:27:33.999Z,1.05
2023-02-20T05:28:37.096Z,1.35
2023-02-20T05:29:39.804Z,1.13
2023-02-20T05:30:42.629Z,0.65
2023-02-20T05:31:45.499Z,0.90
2023-02-20T05:32:48.389Z,0.80
2023-02-20T05:33:51.174Z,0.80
2023-02-20T05:34:54.080Z,1.67
2023-02-20T05:35:56.883Z,0.75
2023-02-20T05:36:59.709Z,0.85
2023-02-20T05:38:02.454Z,0.90
2023-02-20T05:39:05.852Z,0.90
2023-02-20T05:40:08.964Z,1.15
2023-02-20T05:41:12.256Z,0.90
2023-02-20T05:42:15.880Z,0.82
2023-02-20T05:43:18.856Z,0.77
2023-02-20T05:44:21.605Z,1.08
2023-02-20T05:45:24.468Z,0.82
2023-02-20T05:46:27.982Z,1.23
2023-02-20T05:47:31.213Z,1.10
2023-02-20T05:48:33.998Z,1.23
2023-02-20T05:49:37.770Z,0.77
2023-02-20T05:50:40.896Z,0.70
2023-02-20T05:51:55.860Z,1.00
2023-02-20T05:52:58.780Z,1.23
2023-02-20T05:54:01.860Z,1.23
2023-02-20T05:55:04.873Z,1.25
2023-02-20T05:56:07.762Z,1.10
2023-02-20T05:57:13.193Z,1.10
2023-02-20T05:58:15.990Z,1.02
2023-02-20T05:59:21.531Z,0.90
2023-02-20T06:00:24.882Z,1.40
2023-02-20T06:01:30.976Z,1.08
2023-02-20T06:02:37.882Z,1.27
2023-02-20T06:03:40.666Z,1.42
2023-02-20T06:04:43.497Z,1.05
2023-02-20T06:05:46.365Z,1.10
2023-02-20T06:06:49.085Z,1.20
2023-02-20T06:07:51.824Z,1.20
2023-02-20T06:08:54.753Z,1.33
2023-02-20T06:09:58.273Z,1.45
2023-02-20T06:11:01.062Z,1.10
2023-02-20T06:12:03.938Z,1.45
2023-02-20T06:13:06.706Z,1.23
2023-02-20T06:14:09.673Z,1.70
2023-02-20T06:15:12.583Z,1.25
2023-02-20T06:16:26.491Z,1.00
2023-02-20T06:17:31.116Z,1.70
2023-02-20T06:18:34.107Z,1.25
2023-02-20T06:19:36.968Z,1.50
2023-02-20T06:20:39.729Z,1.13
2023-02-20T06:21:46.108Z,1.63
2023-02-20T06:22:49.737Z,1.33
2023-02-20T06:23:54.349Z,0.98
2023-02-20T06:24:57.096Z,1.42
2023-02-20T06:26:00.110Z,1.20
2023-02-20T06:27:03.241Z,1.17
2023-02-20T06:28:06.504Z,1.08
2023-02-20T06:29:10.137Z,1.50
2023-02-20T06:30:13.371Z,1.10
2023-02-20T06:31:23.929Z,1.75
2023-02-20T06:32:26.906Z,1.42
2023-02-20T06:33:30.594Z,1.65
2023-02-20T06:34:34.188Z,1.63
2023-02-20T06:35:36.968Z,1.95
2023-02-20T06:36:41.555Z,1.02
2023-02-20T06:37:44.399Z,2.10
2023-02-20T06:38:47.261Z,1.25
2023-02-20T06:39:50.028Z,1.60
2023-02-20T06:40:53.071Z,1.40
2023-02-20T06:41:56.373Z,1.70
2023-02-20T06:42:59.198Z,1.95
2023-02-20T06:44:02.224Z,1.10
2023-02-20T06:45:05.561Z,1.60
2023-02-20T06:46:08.352Z,1.75
2023-02-20T06:47:11.985Z,1.25
2023-02-20T06:48:15.709Z,1.20
2023-02-20T06:49:18.738Z,1.70
2023-02-20T06:50:21.602Z,1.60
2023-02-20T06:51:31.146Z,1.70
2023-02-20T06:52:33.900Z,1.65
2023-02-20T06:53:39.002Z,1.50
2023-02-20T06:54:41.889Z,1.77
2023-02-20T06:55:44.747Z,1.85
2023-02-20T06:56:47.823Z,1.55
2023-02-20T06:57:51.692Z,1.40
2023-02-20T06:58:55.512Z,1.63
2023-02-20T06:59:58.729Z,1.80
2023-02-20T07:01:01.480Z,1.92
2023-02-20T07:02:04.495Z,1.67
2023-02-20T07:03:07.281Z,1.92
2023-02-20T07:04:19.409Z,1.92
2023-02-20T07:05:22.613Z,1.80
2023-02-20T07:06:26.593Z,1.58
2023-02-20T07:07:29.510Z,1.95
2023-02-20T07:08:32.378Z,1.30
2023-02-20T07:09:35.186Z,1.80
2023-02-20T07:10:38.023Z,1.58
2023-02-20T07:11:41.368Z,2.08
2023-02-20T07:12:44.212Z,1.90
2023-02-20T07:13:47.428Z,1.67
2023-02-20T07:14:51.934Z,1.88
2023-02-20T07:15:54.749Z,1.75
2023-02-20T07:16:57.676Z,1.58
2023-02-20T07:18:00.577Z,1.23
2023-02-20T07:19:03.517Z,2.13
2023-02-20T07:20:07.426Z,1.50
2023-02-20T07:21:10.676Z,2.03
2023-02-20T07:22:13.637Z,1.92
2023-02-20T07:23:16.479Z,2.58
2023-02-20T07:24:19.471Z,1.90
2023-02-20T07:25:22.256Z,2.30
2023-02-20T07:26:28.253Z,2.13
2023-02-20T07:27:31.283Z,2.30
2023-02-20T07:28:37.040Z,2.60
2023-02-20T07:29:41.664Z,2.13
2023-02-20T07:30:44.745Z,1.92
2023-02-20T07:31:47.765Z,2.90
2023-02-20T07:32:50.573Z,2.50
2023-02-20T07:33:53.654Z,2.85
2023-02-20T07:35:04.374Z,3.15
2023-02-20T07:36:14.690Z,2.20
2023-02-20T07:37:18.484Z,2.28
2023-02-20T07:38:21.369Z,2.53
2023-02-20T07:39:24.170Z,2.63
2023-02-20T07:40:26.993Z,3.22
2023-02-20T07:41:36.201Z,2.45
2023-02-20T07:42:41.040Z,3.08
2023-02-20T07:43:57.090Z,2.70
2023-02-20T07:44:59.858Z,2.83
2023-02-20T07:46:02.774Z,2.85
2023-02-20T07:47:05.724Z,2.88
2023-02-20T07:48:08.734Z,3.45
2023-02-20T07:49:11.604Z,2.42
2023-02-20T07:50:18.157Z,3.00
2023-02-20T07:51:21.444Z,3.00
2023-02-20T07:52:24.625Z,3.20
2023-02-20T07:53:27.519Z,3.35
2023-02-20T07:54:30.380Z,3.72
2023-02-20T07:55:33.245Z,2.80
2023-02-20T07:56:36.174Z,3.33
2023-02-20T07:57:39.981Z,3.60
2023-02-20T07:58:42.982Z,3.30
2023-02-20T07:59:45.805Z,3.58
2023-02-20T08:00:51.969Z,4.10
2023-02-20T08:01:54.930Z,3.42
2023-02-20T08:02:59.714Z,3.10
2023-02-20T08:04:02.848Z,3.28
2023-02-20T08:05:05.804Z,3.70
2023-02-20T08:06:10.129Z,4.40
2023-02-20T08:07:13.019Z,3.40
2023-02-20T08:08:16.124Z,4.50
2023-02-20T08:09:18.953Z,4.38
2023-02-20T08:10:25.185Z,4.40
2023-02-20T08:11:28.012Z,4.32
2023-02-20T08:12:30.867Z,4.50
2023-02-20T08:13:33.679Z,4.80
2023-02-20T08:14:36.543Z,4.82
2023-02-20T08:15:39.281Z,5.32
2023-02-20T08:16:42.170Z,5.25
2023-02-20T08:17:47.171Z,5.60
2023-02-20T08:18:50.340Z,5.22
2023-02-20T08:19:53.178Z,6.00
2023-02-20T08:20:56.035Z,6.30
2023-02-20T08:21:58.802Z,5.85
2023-02-20T08:23:01.738Z,6.43
2023-02-20T08:24:04.800Z,6.20
2023-02-20T08:25:08.071Z,6.28
2023-02-20T08:26:11.656Z,6.53
2023-02-20T08:27:14.905Z,7.57
2023-02-20T08:28:18.063Z,6.75
2023-02-20T08:29:20.904Z,7.93
2023-02-20T08:30:27.524Z,7.93
2023-02-20T08:31:32.841Z,7.15
2023-02-20T08:32:35.886Z,7.13
2023-02-20T08:33:38.804Z,6.40
2023-02-20T08:34:41.598Z,7.53
2023-02-20T08:35:44.492Z,6.70
2023-02-20T08:36:47.296Z,6.80
2023-02-20T08:37:50.044Z,6.90
2023-02-20T08:38:52.909Z,6.43
2023-02-20T08:39:55.756Z,6.45
2023-02-20T08:40:59.055Z,6.40
2023-02-20T08:42:02.074Z,7.15
2023-02-20T08:43:04.842Z,6.25
2023-02-20T08:44:08.603Z,6.32
2023-02-20T08:45:11.665Z,6.47
2023-02-20T08:46:15.021Z,5.47
2023-02-20T08:47:21.352Z,6.35
2023-02-20T08:48:24.638Z,6.57
2023-02-20T08:49:27.461Z,5.63
2023-02-20T08:50:30.288Z,5.60
2023-02-20T08:51:33.237Z,6.28
2023-02-20T08:52:36.065Z,6.28
2023-02-20T08:53:40.355Z,5.75
2023-02-20T08:54:49.707Z,6.00
2023-02-20T08:55:52.705Z,5.65
2023-02-20T08:56:55.461Z,5.55
2023-02-20T08:57:58.216Z,5.63
2023-02-20T08:59:01.070Z,5.47
2023-02-20T09:00:06.923Z,5.20
2023-02-20T09:01:09.822Z,4.65
2023-02-20T09:02:21.737Z,5.45
2023-02-20T09:03:25.216Z,5.85
2023-02-20T09:04:27.959Z,5.03
2023-02-20T09:05:30.844Z,5.00
2023-02-20T09:06:33.657Z,4.93
2023-02-20T09:07:36.603Z,5.40
2023-02-20T09:08:39.406Z,4.20
2023-02-20T09:09:42.484Z,5.22
2023-02-20T09:10:46.907Z,4.88
2023-02-20T09:11:49.935Z,4.63
2023-02-20T09:12:52.722Z,4.60
2023-02-20T09:13:55.531Z,4.97
2023-02-20T09:15:00.834Z,4.82
2023-02-20T09:16:07.328Z,4.25
2023-02-20T09:17:10.352Z,4.88
2023-02-20T09:18:14.776Z,4.50
2023-02-20T09:19:18.151Z,4.20
2023-02-20T09:20:22.441Z,4.72
2023-02-20T09:21:25.347Z,4.32
2023-02-20T09:22:28.321Z,4.15
2023-02-20T09:23:31.117Z,4.15
2023-02-20T09:24:34.630Z,3.92
2023-02-20T09:25:37.919Z,3.75
2023-02-20T09:26:40.785Z,4.07
2023-02-20T09:27:43.983Z,3.70
2023-02-20T09:28:46.821Z,3.83
2023-02-20T09:29:49.636Z,3.65
2023-02-20T09:30:55.064Z,4.20
2023-02-20T09:31:58.225Z,3.60
2023-02-20T09:33:01.107Z,3.30
2023-02-20T09:34:04.712Z,3.47
2023-02-20T09:35:07.564Z,3.25
2023-02-20T09:36:10.646Z,3.15
2023-02-20T09:37:13.537Z,3.10
2023-02-20T09:38:16.491Z,2.40
2023-02-20T09:39:19.794Z,3.30
2023-02-20T09:40:27.287Z,2.20
2023-02-20T09:42:01.423Z,2.50
2023-02-20T09:43:13.849Z,2.45
2023-02-20T09:44:52.191Z,2.08
2023-02-20T09:46:15.602Z,2.58
2023-02-20T09:47:44.374Z,1.88
2023-02-20T09:48:47.237Z,2.05
2023-02-20T09:49:50.793Z,1.80
2023-02-20T09:51:04.808Z,2.03
2023-02-20T09:52:13.496Z,1.88
2023-02-20T09:53:41.276Z,2.08
2023-02-20T09:54:50.982Z,1.73
2023-02-20T09:55:56.010Z,1.58
2023-02-20T09:57:02.340Z,1.73
2023-02-20T09:58:06.455Z,1.85
2023-02-20T09:59:44.024Z,1.70
2023-02-20T10:00:48.146Z,1.80
2023-02-20T10:02:06.612Z,1.70
2023-02-20T10:03:43.268Z,1.52
2023-02-20T10:05:00.934Z,1.60
2023-02-20T10:06:16.542Z,1.73
2023-02-20T10:07:43.192Z,1.60
2023-02-20T10:08:49.948Z,1.70
2023-02-20T10:09:54.094Z,1.55
2023-02-20T10:11:03.961Z,1.80
2023-02-20T10:12:28.194Z,1.60
2023-02-20T10:13:39.431Z,1.45
2023-02-20T10:15:12.768Z,1.08
2023-02-20T10:16:58.918Z,1.52
2023-02-20T10:18:20.519Z,1.48
2023-02-20T10:19:47.636Z,1.60
2023-02-20T10:21:02.279Z,1.73
2023-02-20T10:22:21.160Z,1.95
2023-02-20T10:23:47.254Z,1.70
2023-02-20T10:25:21.343Z,1.40
2023-02-20T10:26:38.775Z,1.73
2023-02-20T10:27:55.638Z,1.35
2023-02-20T10:29:23.357Z,2.00
2023-02-20T10:30:35.859Z,1.50
2023-02-20T10:31:46.612Z,1.05
2023-02-20T10:32:57.590Z,1.40
2023-02-20T10:34:07.163Z,2.05
2023-02-20T10:35:17.779Z,1.27
2023-02-20T10:36:37.634Z,1.42
2023-02-20T10:37:48.432Z,1.35
2023-02-20T10:39:02.274Z,1.30
2023-02-20T10:40:16.703Z,1.60
2023-02-20T10:41:44.314Z,1.15
2023-02-20T10:43:01.996Z,1.80
2023-02-20T10:44:23.740Z,1.48
2023-02-20T10:46:04.044Z,1.90
2023-02-20T10:47:32.590Z,1.10
2023-02-20T10:48:36.161Z,2.22
2023-02-20T10:50:02.410Z,2.03
2023-02-20T10:51:20.728Z,1.85
2023-02-20T10:52:34.232Z,1.65
2023-02-20T10:53:55.658Z,1.95
2023-02-20T10:55:15.712Z,2.05
2023-02-20T10:56:56.275Z,2.15
2023-02-20T10:58:05.007Z,1.65
2023-02-20T10:59:13.364Z,1.90
2023-02-20T11:00:40.782Z,1.60
2023-02-20T11:01:45.392Z,2.30
2023-02-20T11:02:53.560Z,2.55
2023-02-20T11:04:04.000Z,2.40
2023-02-20T11:05:13.940Z,2.10
2023-02-20T11:06:21.237Z,2.10
2023-02-20T11:07:24.361Z,2.00
2023-02-20T11:08:27.294Z,2.33
2023-02-20T11:09:30.284Z,2.55
2023-02-20T11:10:35.611Z,2.53
2023-02-20T11:11:44.324Z,2.53
2023-02-20T11:12:51.407Z,2.63
2023-02-20T11:13:54.216Z,2.33
2023-02-20T11:15:00.061Z,2.20
2023-02-20T11:16:03.398Z,2.63
2023-02-20T11:17:14.438Z,2.35
2023-02-20T11:18:26.528Z,2.45
2023-02-20T11:19:40.364Z,2.47
2023-02-20T11:20:47.871Z,2.15
2023-02-20T11:22:54.188Z,2.40
2023-02-20T11:23:57.068Z,2.40
2023-02-20T11:25:16.088Z,2.50
2023-02-20T11:26:21.943Z,2.03
2023-02-20T11:27:26.196Z,2.58
2023-02-20T11:28:29.283Z,2.25
2023-02-20T11:29:42.832Z,2.72
2023-02-20T11:30:48.842Z,2.60
2023-02-20T11:31:51.745Z,2.60
2023-02-20T11:33:11.733Z,2.90
2023-02-20T11:34:21.996Z,2.63
2023-02-20T11:35:30.249Z,2.65
2023-02-20T11:36:45.573Z,2.63
2023-02-20T11:37:55.590Z,2.30
2023-02-20T11:39:04.492Z,2.33
2023-02-20T11:40:29.362Z,2.85
2023-02-20T11:41:40.102Z,2.50
2023-02-20T11:42:43.913Z,2.72
2023-02-20T11:44:00.904Z,2.30
2023-02-20T11:45:26.964Z,3.13
2023-02-20T11:46:29.724Z,3.05
2023-02-20T11:47:33.685Z,3.28
2023-02-20T11:48:38.568Z,3.08
2023-02-20T11:49:42.973Z,2.35
2023-02-20T11:50:48.727Z,3.10
2023-02-20T11:51:51.718Z,3.03
2023-02-20T11:53:00.323Z,2.65
2023-02-20T11:54:10.827Z,2.60
2023-02-20T11:55:22.699Z,2.80
2023-02-20T11:56:25.735Z,2.10
2023-02-20T11:57:30.072Z,2.88
2023-02-20T11:58:33.671Z,2.80
2023-02-20T11:59:48.558Z,2.90
2023-02-20T12:00:54.477Z,2.72
2023-02-20T12:02:13.456Z,2.63
2023-02-20T12:03:24.180Z,2.53
2023-02-20T12:04:27.098Z,2.90
2023-02-20T12:05:44.778Z,2.90
2023-02-20T12:06:47.864Z,2.42
2023-02-20T12:07:53.700Z,3.08
2023-02-20T12:09:02.196Z,2.38
2023-02-20T12:10:26.169Z,2.80
2023-02-20T12:11:29.760Z,3.33
2023-02-20T12:12:33.396Z,2.22
2023-02-20T12:13:44.683Z,2.65
2023-02-20T12:14:47.494Z,2.65
2023-02-20T12:16:14.575Z,3.13
2023-02-20T12:17:44.807Z,2.72
2023-02-20T12:19:17.958Z,2.88
2023-02-20T12:23:02.563Z,2.80
2023-02-20T12:25:12.427Z,3.08
2023-02-20T12:26:32.594Z,2.90
2023-02-20T12:27:50.946Z,3.05
2023-02-20T12:29:20.439Z,3.35
2023-02-20T12:31:01.865Z,3.50
2023-02-20T12:32:10.719Z,3.83
2023-02-20T12:33:31.771Z,3.50
2023-02-20T12:34:58.669Z,3.63
2023-02-20T12:36:10.439Z,3.50
2023-02-20T12:37:37.052Z,4.20
2023-02-20T12:39:17.296Z,3.95
2023-02-20T12:40:50.393Z,3.78
2023-02-20T12:42:31.394Z,4.15
2023-02-20T12:44:13.185Z,3.65
2023-02-20T12:45:42.502Z,3.70
2023-02-20T12:46:54.094Z,3.95
2023-02-20T12:48:34.684Z,3.70
2023-02-20T12:50:05.147Z,3.38
2023-02-20T12:51:35.793Z,3.42
2023-02-20T12:52:54.002Z,4.03
2023-02-20T12:54:04.659Z,4.22
2023-02-20T12:55:19.405Z,3.85
2023-02-20T12:56:29.972Z,3.80
2023-02-20T12:57:51.451Z,3.83
2023-02-20T12:59:10.434Z,3.67
2023-02-20T13:00:36.505Z,3.88
2023-02-20T13:01:40.756Z,3.55
2023-02-20T13:02:50.066Z,3.85
2023-02-20T13:04:23.491Z,3.47
2023-02-20T13:05:28.112Z,4.10
2023-02-20T13:06:56.860Z,3.35
2023-02-20T13:08:32.543Z,3.40
2023-02-20T13:09:58.653Z,3.30
2023-02-20T13:11:05.105Z,3.42
2023-02-20T13:12:13.380Z,3.33
2023-02-20T13:13:17.158Z,3.95
2023-02-20T13:14:42.935Z,3.67
2023-02-20T13:16:26.893Z,3.20
2023-02-20T13:18:10.351Z,3.10
2023-02-20T13:19:42.601Z,3.35
2023-02-20T13:20:48.582Z,3.88
2023-02-20T13:21:51.685Z,3.92
2023-02-20T13:23:16.845Z,3.20
2023-02-20T13:25:42.002Z,3.33
2023-02-20T13:26:55.954Z,2.85
2023-02-20T13:28:07.728Z,3.00
2023-02-20T13:29:21.907Z,3.03
2023-02-20T13:30:28.777Z,2.80
2023-02-20T13:31:39.135Z,2.65
2023-02-20T13:32:45.837Z,2.75
2023-02-20T13:34:16.243Z,2.47
2023-02-20T13:35:45.249Z,2.42
2023-02-20T13:36:50.389Z,3.15
2023-02-20T13:37:55.158Z,2.92
2023-02-20T13:39:34.231Z,2.50
2023-02-20T13:40:39.816Z,2.28
2023-02-20T13:41:54.556Z,3.13
2023-02-20T13:43:12.983Z,2.85
2023-02-20T13:44:40.792Z,2.13
2023-02-20T13:45:46.142Z,2.50
2023-02-20T13:47:02.996Z,2.33
2023-02-20T13:48:30.365Z,3.22
2023-02-20T13:49:45.400Z,2.28
2023-02-20T13:50:48.352Z,2.45
2023-02-20T13:51:51.176Z,2.40
2023-02-20T13:52:57.295Z,2.25
2023-02-20T13:54:06.136Z,2.00
2023-02-20T13:55:11.711Z,1.92
2023-02-20T13:56:36.510Z,2.58
2023-02-20T13:58:12.787Z,2.38
2023-02-20T13:59:19.288Z,2.17
2023-02-20T14:00:25.142Z,1.60
2023-02-20T14:01:28.148Z,2.00
2023-02-20T14:02:31.485Z,1.90
2023-02-20T14:03:37.061Z,2.03
2023-02-20T14:04:40.129Z,2.10
2023-02-20T14:05:43.070Z,2.10
2023-02-20T14:06:58.519Z,1.92
2023-02-20T14:08:02.010Z,1.95
2023-02-20T14:09:11.967Z,2.20
2023-02-20T14:10:25.837Z,1.75
2023-02-20T14:11:35.107Z,1.70
2023-02-20T14:12:38.058Z,1.67
2023-02-20T14:13:46.072Z,1.92
2023-02-20T14:14:48.925Z,2.35
2023-02-20T14:15:54.226Z,1.95
2023-02-20T14:17:13.378Z,2.20
2023-02-20T14:18:24.628Z,2.58
2023-02-20T14:19:30.315Z,1.88
2023-02-20T14:20:36.554Z,2.65
2023-02-20T14:21:39.604Z,2.65
2023-02-20T14:22:42.730Z,2.25
2023-02-20T14:23:46.907Z,2.53
2023-02-20T14:25:12.239Z,2.90
2023-02-20T14:26:21.848Z,2.33
2023-02-20T14:27:30.630Z,2.17
2023-02-20T14:28:35.151Z,2.40
2023-02-20T14:29:39.085Z,2.80
2023-02-20T14:30:42.807Z,3.42
2023-02-20T14:31:45.782Z,3.03
2023-02-20T14:32:55.637Z,2.70
2023-02-20T14:34:01.342Z,2.60
2023-02-20T14:35:26.552Z,2.40
2023-02-20T14:36:32.485Z,2.78
2023-02-20T14:38:07.369Z,2.25
2023-02-20T14:39:28.173Z,2.85
2023-02-20T14:40:39.552Z,2.35
2023-02-20T14:41:52.846Z,2.80
2023-02-20T14:44:06.416Z,2.70
2023-02-20T14:45:30.972Z,2.08
2023-02-20T14:46:36.489Z,2.72
2023-02-20T14:47:56.071Z,2.38
2023-02-20T14:49:12.842Z,2.45
2023-02-20T14:50:20.465Z,2.63
2023-02-20T14:51:25.740Z,2.42
2023-02-20T14:52:30.221Z,2.42
2023-02-20T14:53:33.112Z,2.80
2023-02-20T14:54:37.872Z,2.53
2023-02-20T14:55:41.272Z,2.58
2023-02-20T14:56:45.726Z,2.60
2023-02-20T14:57:50.154Z,2.10
2023-02-20T14:58:53.297Z,2.17
2023-02-20T15:00:10.714Z,2.47
2023-02-20T15:01:28.824Z,2.22
2023-02-20T15:02:34.728Z,2.33
2023-02-20T15:04:07.468Z,2.72
2023-02-20T15:05:16.885Z,1.73
2023-02-20T15:06:19.843Z,1.80
2023-02-20T15:07:26.050Z,2.30
2023-02-20T15:08:35.817Z,2.15
2023-02-20T15:09:44.874Z,2.25
2023-02-20T15:10:57.957Z,1.58
2023-02-20T15:12:00.791Z,2.15
2023-02-20T15:13:12.054Z,2.13
2023-02-20T15:14:23.648Z,2.20
2023-02-20T15:15:26.495Z,2.15
2023-02-20T15:16:32.670Z,1.58
2023-02-20T15:17:40.530Z,2.20
2023-02-20T15:18:45.599Z,1.92
2023-02-20T15:19:50.055Z,1.90
2023-02-20T15:20:52.923Z,1.80
2023-02-20T15:21:58.815Z,1.95
2023-02-20T15:23:26.470Z,2.10
2023-02-20T15:24:40.809Z,1.85
2023-02-20T15:25:44.712Z,2.10
2023-02-20T15:26:47.715Z,1.75
2023-02-20T15:28:12.069Z,2.00
2023-02-20T15:29:28.931Z,1.67